sensor_id;sensor_type;location;lat;lon;timestamp;pressure;altitude;pressure_sealevel;temperature;humidity
13705;BME280;6924;52.122;9.952;2023-12-04T00:01:44;100880.63;;;-2.43;100.00
13705;BME280;6924;52.122;9.952;2023-12-04T00:04:11;100893.22;;;-2.47;100.00
13705;BME280;6924;52.122;9.952;2023-12-04T00:06:38;100885.16;;;-2.49;100.00
13705;BME280;6924;52.122;9.952;2023-12-04T00:09:04;100885.31;;;-2.44;100.00
13705;BME280;6924;52.122;9.952;2023-12-04T00:11:31;100875.38;;;-2.58;100.00
13705;BME280;6924;52.122;9.952;2023-12-04T00:13:58;100874.97;;;-2.62;100.00
13705;BME280;6924;52.122;9.952;2023-12-04T00:16:24;100863.63;;;-2.54;100.00
13705;BME280;6924;52.122;9.952;2023-12-04T00:18:52;100852.97;;;-2.50;100.00
13705;BME280;6924;52.122;9.952;2023-12-04T00:21:18;100854.88;;;-2.51;100.00
13705;BME280;6924;52.122;9.952;2023-12-04T00:23:45;100860.34;;;-2.37;100.00
13705;BME280;6924;52.122;9.952;2023-12-04T00:26:12;100842.81;;;-2.24;100.00
13705;BME280;6924;52.122;9.952;2023-12-04T00:28:38;100845.13;;;-2.21;100.00
13705;BME280;6924;52.122;9.952;2023-12-04T00:31:06;100854.13;;;-2.01;100.00
13705;BME280;6924;52.122;9.952;2023-12-04T00:33:32;100843.50;;;-2.04;100.00
13705;BME280;6924;52.122;9.952;2023-12-04T00:36:00;100834.03;;;-1.90;100.00
13705;BME280;6924;52.122;9.952;2023-12-04T00:38:26;100835.19;;;-1.79;100.00
13705;BME280;6924;52.122;9.952;2023-12-04T00:40:53;100835.25;;;-1.85;100.00
13705;BME280;6924;52.122;9.952;2023-12-04T00:43:19;100829.47;;;-1.84;100.00
13705;BME280;6924;52.122;9.952;2023-12-04T00:45:45;100830.44;;;-1.72;100.00
13705;BME280;6924;52.122;9.952;2023-12-04T00:48:12;100821.09;;;-1.77;100.00
13705;BME280;6924;52.122;9.952;2023-12-04T00:50:38;100817.38;;;-1.90;100.00
13705;BME280;6924;52.122;9.952;2023-12-04T00:53:06;100808.03;;;-1.95;100.00
13705;BME280;6924;52.122;9.952;2023-12-04T00:55:32;100810.41;;;-1.74;100.00
13705;BME280;6924;52.122;9.952;2023-12-04T00:57:59;100800.00;;;-1.78;99.75
13705;BME280;6924;52.122;9.952;2023-12-04T01:00:25;100793.31;;;-1.96;99.60
13705;BME280;6924;52.122;9.952;2023-12-04T01:02:52;100782.06;;;-2.01;98.87
13705;BME280;6924;52.122;9.952;2023-12-04T01:05:18;100788.28;;;-2.05;99.77
13705;BME280;6924;52.122;9.952;2023-12-04T01:07:44;100780.53;;;-1.97;100.00
13705;BME280;6924;52.122;9.952;2023-12-04T01:10:12;100787.09;;;-1.91;100.00
13705;BME280;6924;52.122;9.952;2023-12-04T01:12:38;100778.72;;;-1.84;99.61
13705;BME280;6924;52.122;9.952;2023-12-04T01:15:06;100775.38;;;-1.93;100.00
13705;BME280;6924;52.122;9.952;2023-12-04T01:17:32;100766.91;;;-1.98;100.00
13705;BME280;6924;52.122;9.952;2023-12-04T01:19:59;100762.28;;;-2.04;100.00
13705;BME280;6924;52.122;9.952;2023-12-04T01:22:25;100765.88;;;-2.04;100.00
13705;BME280;6924;52.122;9.952;2023-12-04T01:24:51;100763.88;;;-1.97;100.00
13705;BME280;6924;52.122;9.952;2023-12-04T01:27:19;100760.09;;;-1.77;100.00
13705;BME280;6924;52.122;9.952;2023-12-04T01:29:46;100757.59;;;-1.85;100.00
13705;BME280;6924;52.122;9.952;2023-12-04T01:32:12;100756.13;;;-1.88;100.00
13705;BME280;6924;52.122;9.952;2023-12-04T01:34:38;100756.94;;;-2.06;100.00
13705;BME280;6924;52.122;9.952;2023-12-04T01:37:05;100760.28;;;-1.97;100.00
13705;BME280;6924;52.122;9.952;2023-12-04T01:39:31;100755.34;;;-1.95;100.00
13705;BME280;6924;52.122;9.952;2023-12-04T01:41:57;100756.25;;;-2.01;100.00
13705;BME280;6924;52.122;9.952;2023-12-04T01:44:25;100743.81;;;-1.92;100.00
13705;BME280;6924;52.122;9.952;2023-12-04T01:46:52;100742.81;;;-1.98;100.00
13705;BME280;6924;52.122;9.952;2023-12-04T01:49:18;100734.72;;;-1.99;100.00
13705;BME280;6924;52.122;9.952;2023-12-04T01:51:45;100734.56;;;-2.04;100.00
13705;BME280;6924;52.122;9.952;2023-12-04T01:54:14;100726.25;;;-2.04;100.00
13705;BME280;6924;52.122;9.952;2023-12-04T01:56:41;100729.16;;;-1.99;100.00
13705;BME280;6924;52.122;9.952;2023-12-04T01:59:09;100727.53;;;-2.07;100.00
13705;BME280;6924;52.122;9.952;2023-12-04T02:01:37;100725.47;;;-2.12;100.00
13705;BME280;6924;52.122;9.952;2023-12-04T02:04:04;100723.47;;;-2.04;100.00
13705;BME280;6924;52.122;9.952;2023-12-04T02:06:30;100705.59;;;-2.09;100.00
13705;BME280;6924;52.122;9.952;2023-12-04T02:08:57;100706.66;;;-2.10;100.00
13705;BME280;6924;52.122;9.952;2023-12-04T02:11:23;100699.66;;;-2.12;100.00
13705;BME280;6924;52.122;9.952;2023-12-04T02:13:50;100687.25;;;-2.10;100.00
13705;BME280;6924;52.122;9.952;2023-12-04T02:16:18;100689.09;;;-2.03;100.00
13705;BME280;6924;52.122;9.952;2023-12-04T02:18:47;100682.09;;;-2.06;100.00
13705;BME280;6924;52.122;9.952;2023-12-04T02:21:14;100686.19;;;-2.09;100.00
13705;BME280;6924;52.122;9.952;2023-12-04T02:23:40;100680.56;;;-2.02;100.00
13705;BME280;6924;52.122;9.952;2023-12-04T02:26:12;100674.66;;;-1.87;100.00
13705;BME280;6924;52.122;9.952;2023-12-04T02:28:41;100672.19;;;-1.95;100.00
13705;BME280;6924;52.122;9.952;2023-12-04T02:31:10;100674.97;;;-1.95;100.00
13705;BME280;6924;52.122;9.952;2023-12-04T02:33:38;100660.88;;;-1.94;100.00
13705;BME280;6924;52.122;9.952;2023-12-04T02:36:07;100663.56;;;-1.87;100.00
13705;BME280;6924;52.122;9.952;2023-12-04T02:38:35;100666.03;;;-1.97;100.00
13705;BME280;6924;52.122;9.952;2023-12-04T02:41:01;100664.72;;;-1.95;100.00
13705;BME280;6924;52.122;9.952;2023-12-04T02:43:29;100666.56;;;-1.89;100.00
13705;BME280;6924;52.122;9.952;2023-12-04T02:45:55;100653.34;;;-1.87;100.00
13705;BME280;6924;52.122;9.952;2023-12-04T02:48:22;100645.78;;;-1.79;100.00
13705;BME280;6924;52.122;9.952;2023-12-04T02:50:48;100647.56;;;-1.85;100.00
13705;BME280;6924;52.122;9.952;2023-12-04T02:53:15;100651.31;;;-1.98;100.00
13705;BME280;6924;52.122;9.952;2023-12-04T02:55:41;100634.75;;;-1.86;100.00
13705;BME280;6924;52.122;9.952;2023-12-04T02:58:07;100632.44;;;-1.71;100.00
13705;BME280;6924;52.122;9.952;2023-12-04T03:00:35;100626.28;;;-1.73;100.00
13705;BME280;6924;52.122;9.952;2023-12-04T03:03:02;100615.59;;;-1.69;100.00
13705;BME280;6924;52.122;9.952;2023-12-04T03:05:28;100615.72;;;-1.64;100.00
13705;BME280;6924;52.122;9.952;2023-12-04T03:07:54;100606.94;;;-1.61;100.00
13705;BME280;6924;52.122;9.952;2023-12-04T03:10:21;100607.22;;;-1.51;100.00
13705;BME280;6924;52.122;9.952;2023-12-04T03:12:47;100602.16;;;-1.54;100.00
13705;BME280;6924;52.122;9.952;2023-12-04T03:15:14;100597.16;;;-1.63;100.00
13705;BME280;6924;52.122;9.952;2023-12-04T03:17:41;100601.22;;;-1.48;100.00
13705;BME280;6924;52.122;9.952;2023-12-04T03:20:09;100595.31;;;-1.39;100.00
13705;BME280;6924;52.122;9.952;2023-12-04T03:22:36;100608.59;;;-1.41;99.10
13705;BME280;6924;52.122;9.952;2023-12-04T03:25:03;100601.13;;;-1.41;98.06
13705;BME280;6924;52.122;9.952;2023-12-04T03:27:30;100603.56;;;-1.33;96.90
13705;BME280;6924;52.122;9.952;2023-12-04T03:29:56;100609.72;;;-1.31;96.75
13705;BME280;6924;52.122;9.952;2023-12-04T03:32:23;100605.16;;;-1.25;96.18
13705;BME280;6924;52.122;9.952;2023-12-04T03:34:50;100606.84;;;-1.24;94.61
13705;BME280;6924;52.122;9.952;2023-12-04T03:37:17;100599.03;;;-1.46;93.92
13705;BME280;6924;52.122;9.952;2023-12-04T03:39:43;100597.94;;;-1.56;94.65
13705;BME280;6924;52.122;9.952;2023-12-04T03:42:09;100586.66;;;-1.61;95.31
13705;BME280;6924;52.122;9.952;2023-12-04T03:44:36;100592.22;;;-1.61;95.93
13705;BME280;6924;52.122;9.952;2023-12-04T03:47:02;100589.31;;;-1.67;94.84
13705;BME280;6924;52.122;9.952;2023-12-04T03:49:29;100584.69;;;-1.73;95.93
13705;BME280;6924;52.122;9.952;2023-12-04T03:51:57;100574.44;;;-1.72;96.93
13705;BME280;6924;52.122;9.952;2023-12-04T03:54:23;100568.78;;;-1.66;96.15
13705;BME280;6924;52.122;9.952;2023-12-04T03:56:49;100567.50;;;-1.63;95.67
13705;BME280;6924;52.122;9.952;2023-12-04T03:59:16;100562.38;;;-1.48;95.25
13705;BME280;6924;52.122;9.952;2023-12-04T04:01:42;100563.22;;;-1.47;94.64
13705;BME280;6924;52.122;9.952;2023-12-04T04:04:09;100562.91;;;-1.39;95.77
13705;BME280;6924;52.122;9.952;2023-12-04T04:06:35;100564.56;;;-1.38;95.60
13705;BME280;6924;52.122;9.952;2023-12-04T04:09:04;100557.81;;;-1.42;96.28
13705;BME280;6924;52.122;9.952;2023-12-04T04:11:31;100556.88;;;-1.36;95.88
13705;BME280;6924;52.122;9.952;2023-12-04T04:13:57;100545.56;;;-1.22;91.00
13705;BME280;6924;52.122;9.952;2023-12-04T04:16:24;100548.31;;;-1.34;92.20
13705;BME280;6924;52.122;9.952;2023-12-04T04:18:53;100537.72;;;-1.26;94.42
13705;BME280;6924;52.122;9.952;2023-12-04T04:21:19;100528.50;;;-1.38;92.04
13705;BME280;6924;52.122;9.952;2023-12-04T04:23:44;100529.13;;;-1.36;92.89
13705;BME280;6924;52.122;9.952;2023-12-04T04:26:12;100530.44;;;-1.38;90.98
13705;BME280;6924;52.122;9.952;2023-12-04T04:28:38;100526.66;;;-1.44;92.10
13705;BME280;6924;52.122;9.952;2023-12-04T04:31:05;100529.44;;;-1.44;93.50
13705;BME280;6924;52.122;9.952;2023-12-04T04:33:32;100515.34;;;-1.42;93.54
13705;BME280;6924;52.122;9.952;2023-12-04T04:35:58;100514.03;;;-1.40;93.79
13705;BME280;6924;52.122;9.952;2023-12-04T04:38:25;100518.03;;;-1.24;92.99
13705;BME280;6924;52.122;9.952;2023-12-04T04:40:51;100514.53;;;-1.19;91.60
13705;BME280;6924;52.122;9.952;2023-12-04T04:43:19;100508.16;;;-1.20;92.30
13705;BME280;6924;52.122;9.952;2023-12-04T04:45:45;100505.97;;;-1.30;92.10
13705;BME280;6924;52.122;9.952;2023-12-04T04:48:12;100492.81;;;-1.22;91.84
13705;BME280;6924;52.122;9.952;2023-12-04T04:50:38;100498.72;;;-1.31;94.06
13705;BME280;6924;52.122;9.952;2023-12-04T04:53:05;100487.22;;;-1.46;94.48
13705;BME280;6924;52.122;9.952;2023-12-04T04:55:31;100474.66;;;-1.49;94.08
13705;BME280;6924;52.122;9.952;2023-12-04T04:57:57;100477.06;;;-1.52;95.96
13705;BME280;6924;52.122;9.952;2023-12-04T05:00:25;100471.50;;;-1.52;94.49
13705;BME280;6924;52.122;9.952;2023-12-04T05:02:52;100462.13;;;-1.51;94.98
13705;BME280;6924;52.122;9.952;2023-12-04T05:05:18;100463.47;;;-1.42;94.90
13705;BME280;6924;52.122;9.952;2023-12-04T05:07:44;100455.03;;;-1.35;93.23
13705;BME280;6924;52.122;9.952;2023-12-04T05:10:11;100454.41;;;-1.49;92.48
13705;BME280;6924;52.122;9.952;2023-12-04T05:12:37;100450.44;;;-1.53;92.84
13705;BME280;6924;52.122;9.952;2023-12-04T05:15:05;100443.53;;;-1.62;95.33
13705;BME280;6924;52.122;9.952;2023-12-04T05:17:33;100443.19;;;-1.54;93.95
13705;BME280;6924;52.122;9.952;2023-12-04T05:19:59;100434.88;;;-1.54;93.51
13705;BME280;6924;52.122;9.952;2023-12-04T05:22:25;100436.16;;;-1.57;94.16
13705;BME280;6924;52.122;9.952;2023-12-04T05:24:52;100434.50;;;-1.58;93.64
13705;BME280;6924;52.122;9.952;2023-12-04T05:27:18;100429.66;;;-1.62;92.58
13705;BME280;6924;52.122;9.952;2023-12-04T05:29:45;100434.59;;;-1.64;91.30
13705;BME280;6924;52.122;9.952;2023-12-04T05:32:12;100436.13;;;-1.80;93.21
13705;BME280;6924;52.122;9.952;2023-12-04T05:34:40;100432.03;;;-1.78;93.09
13705;BME280;6924;52.122;9.952;2023-12-04T05:37:06;100435.41;;;-1.76;93.91
13705;BME280;6924;52.122;9.952;2023-12-04T05:39:33;100442.81;;;-1.70;93.84
13705;BME280;6924;52.122;9.952;2023-12-04T05:41:59;100437.84;;;-1.68;93.79
13705;BME280;6924;52.122;9.952;2023-12-04T05:44:25;100430.00;;;-1.71;93.79
13705;BME280;6924;52.122;9.952;2023-12-04T05:46:52;100430.59;;;-1.69;93.77
13705;BME280;6924;52.122;9.952;2023-12-04T05:49:18;100436.66;;;-1.72;94.24
13705;BME280;6924;52.122;9.952;2023-12-04T05:51:46;100427.22;;;-1.71;94.69
13705;BME280;6924;52.122;9.952;2023-12-04T05:54:13;100428.22;;;-1.65;94.59
13705;BME280;6924;52.122;9.952;2023-12-04T05:56:39;100427.72;;;-1.62;92.84
13705;BME280;6924;52.122;9.952;2023-12-04T05:59:05;100427.75;;;-1.50;90.64
13705;BME280;6924;52.122;9.952;2023-12-04T06:01:32;100429.94;;;-1.40;92.36
13705;BME280;6924;52.122;9.952;2023-12-04T06:03:58;100439.22;;;-1.35;92.04
13705;BME280;6924;52.122;9.952;2023-12-04T06:06:24;100429.56;;;-1.44;92.21
13705;BME280;6924;52.122;9.952;2023-12-04T06:08:53;100425.72;;;-1.31;89.56
13705;BME280;6924;52.122;9.952;2023-12-04T06:11:20;100432.69;;;-1.52;89.92
13705;BME280;6924;52.122;9.952;2023-12-04T06:13:46;100418.63;;;-1.39;88.38
13705;BME280;6924;52.122;9.952;2023-12-04T06:16:13;100421.41;;;-1.39;89.28
13705;BME280;6924;52.122;9.952;2023-12-04T06:18:39;100419.06;;;-1.42;89.19
13705;BME280;6924;52.122;9.952;2023-12-04T06:21:06;100418.97;;;-1.35;89.30
13705;BME280;6924;52.122;9.952;2023-12-04T06:23:33;100417.16;;;-1.30;89.64
13705;BME280;6924;52.122;9.952;2023-12-04T06:26:01;100413.75;;;-1.43;88.39
13705;BME280;6924;52.122;9.952;2023-12-04T06:28:28;100399.31;;;-1.34;89.41
13705;BME280;6924;52.122;9.952;2023-12-04T06:30:55;100403.16;;;-1.35;87.94
13705;BME280;6924;52.122;9.952;2023-12-04T06:33:22;100407.53;;;-1.39;87.05
13705;BME280;6924;52.122;9.952;2023-12-04T06:35:49;100409.69;;;-1.41;87.40
13705;BME280;6924;52.122;9.952;2023-12-04T06:38:16;100403.75;;;-1.44;88.14
13705;BME280;6924;52.122;9.952;2023-12-04T06:40:44;100405.94;;;-1.47;89.35
13705;BME280;6924;52.122;9.952;2023-12-04T06:43:13;100413.06;;;-1.39;89.11
13705;BME280;6924;52.122;9.952;2023-12-04T06:45:41;100411.25;;;-1.33;87.90
13705;BME280;6924;52.122;9.952;2023-12-04T06:48:08;100415.34;;;-1.24;86.47
13705;BME280;6924;52.122;9.952;2023-12-04T06:50:36;100409.31;;;-1.33;85.22
13705;BME280;6924;52.122;9.952;2023-12-04T06:53:05;100410.75;;;-1.30;86.93
13705;BME280;6924;52.122;9.952;2023-12-04T06:55:31;100403.31;;;-1.30;86.97
13705;BME280;6924;52.122;9.952;2023-12-04T06:57:58;100417.66;;;-1.21;89.00
13705;BME280;6924;52.122;9.952;2023-12-04T07:00:26;100423.56;;;-1.29;88.77
13705;BME280;6924;52.122;9.952;2023-12-04T07:02:52;100421.72;;;-1.23;86.68
13705;BME280;6924;52.122;9.952;2023-12-04T07:05:19;100417.91;;;-1.22;88.10
13705;BME280;6924;52.122;9.952;2023-12-04T07:07:46;100425.63;;;-1.25;87.60
13705;BME280;6924;52.122;9.952;2023-12-04T07:10:12;100418.75;;;-1.10;87.10
13705;BME280;6924;52.122;9.952;2023-12-04T07:12:40;100432.75;;;-1.05;86.92
13705;BME280;6924;52.122;9.952;2023-12-04T07:15:07;100432.16;;;-1.19;88.27
13705;BME280;6924;52.122;9.952;2023-12-04T07:17:35;100429.09;;;-1.29;87.12
13705;BME280;6924;52.122;9.952;2023-12-04T07:20:02;100442.38;;;-1.19;89.38
13705;BME280;6924;52.122;9.952;2023-12-04T07:22:29;100442.38;;;-1.19;87.59
13705;BME280;6924;52.122;9.952;2023-12-04T07:24:56;100438.66;;;-1.13;87.97
13705;BME280;6924;52.122;9.952;2023-12-04T07:27:23;100445.53;;;-1.16;89.26
13705;BME280;6924;52.122;9.952;2023-12-04T07:29:50;100451.69;;;-1.26;90.99
13705;BME280;6924;52.122;9.952;2023-12-04T07:32:17;100439.88;;;-1.21;89.53
13705;BME280;6924;52.122;9.952;2023-12-04T07:34:45;100447.56;;;-1.35;89.96
13705;BME280;6924;52.122;9.952;2023-12-04T07:37:12;100445.03;;;-1.25;90.30
13705;BME280;6924;52.122;9.952;2023-12-04T07:39:40;100450.47;;;-1.30;89.27
13705;BME280;6924;52.122;9.952;2023-12-04T07:42:08;100453.13;;;-1.23;87.68
13705;BME280;6924;52.122;9.952;2023-12-04T07:44:35;100453.25;;;-1.18;89.63
13705;BME280;6924;52.122;9.952;2023-12-04T07:47:02;100449.03;;;-1.20;86.92
13705;BME280;6924;52.122;9.952;2023-12-04T07:49:28;100448.41;;;-1.11;86.88
13705;BME280;6924;52.122;9.952;2023-12-04T07:51:56;100446.13;;;-1.02;88.46
13705;BME280;6924;52.122;9.952;2023-12-04T07:54:23;100442.25;;;-1.13;88.50
13705;BME280;6924;52.122;9.952;2023-12-04T07:56:51;100444.09;;;-1.18;89.94
13705;BME280;6924;52.122;9.952;2023-12-04T07:59:17;100443.97;;;-1.12;89.17
13705;BME280;6924;52.122;9.952;2023-12-04T08:01:44;100442.03;;;-1.23;90.75
13705;BME280;6924;52.122;9.952;2023-12-04T08:04:11;100434.91;;;-1.19;90.23
13705;BME280;6924;52.122;9.952;2023-12-04T08:06:39;100428.38;;;-1.13;88.96
13705;BME280;6924;52.122;9.952;2023-12-04T08:09:07;100421.88;;;-1.18;89.39
13705;BME280;6924;52.122;9.952;2023-12-04T08:11:35;100427.19;;;-1.05;89.97
13705;BME280;6924;52.122;9.952;2023-12-04T08:14:02;100424.66;;;-1.18;90.82
13705;BME280;6924;52.122;9.952;2023-12-04T08:16:28;100427.19;;;-1.29;89.69
13705;BME280;6924;52.122;9.952;2023-12-04T08:18:55;100422.47;;;-1.28;88.31
13705;BME280;6924;52.122;9.952;2023-12-04T08:21:21;100416.56;;;-1.32;89.84
13705;BME280;6924;52.122;9.952;2023-12-04T08:23:48;100426.56;;;-1.31;89.53
13705;BME280;6924;52.122;9.952;2023-12-04T08:26:22;100418.69;;;-1.46;90.03
13705;BME280;6924;52.122;9.952;2023-12-04T08:28:49;100412.19;;;-1.51;92.73
13705;BME280;6924;52.122;9.952;2023-12-04T08:31:16;100407.97;;;-1.42;92.32
13705;BME280;6924;52.122;9.952;2023-12-04T08:33:42;100397.97;;;-1.31;90.65
13705;BME280;6924;52.122;9.952;2023-12-04T08:36:10;100401.59;;;-1.31;91.39
13705;BME280;6924;52.122;9.952;2023-12-04T08:38:37;100398.34;;;-1.28;91.27
13705;BME280;6924;52.122;9.952;2023-12-04T08:41:03;100394.72;;;-1.28;91.45
13705;BME280;6924;52.122;9.952;2023-12-04T08:43:31;100384.69;;;-1.17;90.72
13705;BME280;6924;52.122;9.952;2023-12-04T08:45:58;100392.28;;;-1.13;88.24
13705;BME280;6924;52.122;9.952;2023-12-04T08:48:25;100397.75;;;-1.18;88.94
13705;BME280;6924;52.122;9.952;2023-12-04T08:50:51;100385.31;;;-1.15;88.07
13705;BME280;6924;52.122;9.952;2023-12-04T08:53:18;100376.00;;;-1.09;87.87
13705;BME280;6924;52.122;9.952;2023-12-04T08:55:45;100378.28;;;-1.06;87.77
13705;BME280;6924;52.122;9.952;2023-12-04T08:58:12;100372.25;;;-1.15;88.70
13705;BME280;6924;52.122;9.952;2023-12-04T09:00:40;100381.22;;;-1.01;87.38
13705;BME280;6924;52.122;9.952;2023-12-04T09:03:08;100370.94;;;-1.00;87.97
13705;BME280;6924;52.122;9.952;2023-12-04T09:05:35;100371.66;;;-0.93;87.78
13705;BME280;6924;52.122;9.952;2023-12-04T09:08:01;100365.84;;;-0.92;84.49
13705;BME280;6924;52.122;9.952;2023-12-04T09:10:28;100372.63;;;-0.88;86.38
13705;BME280;6924;52.122;9.952;2023-12-04T09:12:54;100367.78;;;-0.92;87.40
13705;BME280;6924;52.122;9.952;2023-12-04T09:15:19;100366.94;;;-0.93;86.63
13705;BME280;6924;52.122;9.952;2023-12-04T09:17:47;100368.03;;;-0.94;86.75
13705;BME280;6924;52.122;9.952;2023-12-04T09:20:14;100354.66;;;-0.97;85.67
13705;BME280;6924;52.122;9.952;2023-12-04T09:22:40;100357.16;;;-0.95;86.97
13705;BME280;6924;52.122;9.952;2023-12-04T09:25:07;100359.34;;;-0.86;85.73
13705;BME280;6924;52.122;9.952;2023-12-04T09:27:34;100360.25;;;-0.68;85.06
13705;BME280;6924;52.122;9.952;2023-12-04T09:30:01;100364.13;;;-0.69;86.57
13705;BME280;6924;52.122;9.952;2023-12-04T09:32:27;100362.78;;;-0.67;83.86
13705;BME280;6924;52.122;9.952;2023-12-04T09:34:55;100368.22;;;-0.72;84.44
13705;BME280;6924;52.122;9.952;2023-12-04T09:37:21;100365.69;;;-0.73;84.69
13705;BME280;6924;52.122;9.952;2023-12-04T09:39:48;100360.97;;;-0.61;83.88
13705;BME280;6924;52.122;9.952;2023-12-04T09:42:15;100360.13;;;-0.73;84.48
13705;BME280;6924;52.122;9.952;2023-12-04T09:44:43;100359.41;;;-0.69;82.27
13705;BME280;6924;52.122;9.952;2023-12-04T09:47:10;100358.69;;;-0.76;84.39
13705;BME280;6924;52.122;9.952;2023-12-04T09:49:37;100342.53;;;-0.79;84.73
13705;BME280;6924;52.122;9.952;2023-12-04T09:52:06;100350.91;;;-0.62;84.15
13705;BME280;6924;52.122;9.952;2023-12-04T09:54:34;100336.09;;;-0.68;85.52
13705;BME280;6924;52.122;9.952;2023-12-04T09:57:01;100345.88;;;-0.65;84.23
13705;BME280;6924;52.122;9.952;2023-12-04T09:59:29;100339.63;;;-0.72;83.96
13705;BME280;6924;52.122;9.952;2023-12-04T10:01:56;100332.34;;;-0.73;84.71
13705;BME280;6924;52.122;9.952;2023-12-04T10:04:24;100332.34;;;-0.61;84.46
13705;BME280;6924;52.122;9.952;2023-12-04T10:06:51;100327.09;;;-0.46;84.32
13705;BME280;6924;52.122;9.952;2023-12-04T10:09:20;100327.28;;;-0.36;83.13
13705;BME280;6924;52.122;9.952;2023-12-04T10:11:48;100321.72;;;-0.36;82.48
13705;BME280;6924;52.122;9.952;2023-12-04T10:14:17;100313.06;;;-0.23;82.45
13705;BME280;6924;52.122;9.952;2023-12-04T10:16:44;100297.66;;;-0.30;80.97
13705;BME280;6924;52.122;9.952;2023-12-04T10:19:15;100300.78;;;-0.10;80.28
13705;BME280;6924;52.122;9.952;2023-12-04T10:21:43;100304.09;;;0.04;80.62
13705;BME280;6924;52.122;9.952;2023-12-04T10:24:09;100294.50;;;0.12;80.81
13705;BME280;6924;52.122;9.952;2023-12-04T10:26:37;100289.53;;;0.14;81.17
13705;BME280;6924;52.122;9.952;2023-12-04T10:29:04;100283.38;;;0.12;80.86
13705;BME280;6924;52.122;9.952;2023-12-04T10:31:32;100279.00;;;0.16;80.28
13705;BME280;6924;52.122;9.952;2023-12-04T10:33:59;100275.38;;;-0.02;80.68
13705;BME280;6924;52.122;9.952;2023-12-04T10:36:26;100280.09;;;-0.02;80.48
13705;BME280;6924;52.122;9.952;2023-12-04T10:38:58;100268.34;;;-0.21;82.03
13705;BME280;6924;52.122;9.952;2023-12-04T10:41:24;100268.69;;;-0.17;80.05
13705;BME280;6924;52.122;9.952;2023-12-04T10:43:53;100261.34;;;-0.07;80.27
13705;BME280;6924;52.122;9.952;2023-12-04T10:46:23;100262.81;;;-0.04;80.55
13705;BME280;6924;52.122;9.952;2023-12-04T10:48:50;100255.38;;;0.02;79.21
13705;BME280;6924;52.122;9.952;2023-12-04T10:51:17;100248.47;;;-0.13;80.73
13705;BME280;6924;52.122;9.952;2023-12-04T10:53:44;100258.56;;;-0.07;78.89
13705;BME280;6924;52.122;9.952;2023-12-04T10:56:15;100248.03;;;-0.05;79.83
13705;BME280;6924;52.122;9.952;2023-12-04T10:58:47;100249.50;;;-0.02;78.31
13705;BME280;6924;52.122;9.952;2023-12-04T11:01:18;100255.38;;;0.02;79.35
13705;BME280;6924;52.122;9.952;2023-12-04T11:03:47;100252.53;;;-0.04;79.21
13705;BME280;6924;52.122;9.952;2023-12-04T11:06:16;100246.69;;;0.15;79.40
13705;BME280;6924;52.122;9.952;2023-12-04T11:08:43;100238.09;;;0.16;77.85
13705;BME280;6924;52.122;9.952;2023-12-04T11:11:16;100237.94;;;0.23;78.38
13705;BME280;6924;52.122;9.952;2023-12-04T11:13:48;100228.72;;;0.39;79.22
13705;BME280;6924;52.122;9.952;2023-12-04T11:16:20;100228.66;;;0.17;77.73
13705;BME280;6924;52.122;9.952;2023-12-04T11:18:53;100221.66;;;0.15;77.31
13705;BME280;6924;52.122;9.952;2023-12-04T11:21:21;100217.13;;;0.09;78.56
13705;BME280;6924;52.122;9.952;2023-12-04T11:23:48;100204.31;;;0.08;78.08
13705;BME280;6924;52.122;9.952;2023-12-04T11:26:16;100203.22;;;0.09;79.34
13705;BME280;6924;52.122;9.952;2023-12-04T11:28:43;100201.72;;;0.01;78.24
13705;BME280;6924;52.122;9.952;2023-12-04T11:31:13;100203.78;;;0.11;79.11
13705;BME280;6924;52.122;9.952;2023-12-04T11:33:41;100193.53;;;0.11;77.71
13705;BME280;6924;52.122;9.952;2023-12-04T11:36:09;100192.94;;;0.09;76.63
13705;BME280;6924;52.122;9.952;2023-12-04T11:38:36;100193.72;;;0.05;77.39
13705;BME280;6924;52.122;9.952;2023-12-04T11:41:14;100191.06;;;0.15;80.52
13705;BME280;6924;52.122;9.952;2023-12-04T11:43:41;100181.13;;;0.19;80.29
13705;BME280;6924;52.122;9.952;2023-12-04T11:46:08;100191.00;;;0.10;77.89
13705;BME280;6924;52.122;9.952;2023-12-04T11:48:36;100183.56;;;0.15;76.90
13705;BME280;6924;52.122;9.952;2023-12-04T11:51:05;100181.78;;;0.26;76.17
13705;BME280;6924;52.122;9.952;2023-12-04T11:53:32;100174.53;;;0.25;77.91
13705;BME280;6924;52.122;9.952;2023-12-04T11:55:58;100177.31;;;0.25;76.38
13705;BME280;6924;52.122;9.952;2023-12-04T11:58:41;100173.00;;;0.34;76.93
13705;BME280;6924;52.122;9.952;2023-12-04T12:01:08;100167.88;;;0.48;76.98
13705;BME280;6924;52.122;9.952;2023-12-04T12:03:34;100163.78;;;0.51;74.78
13705;BME280;6924;52.122;9.952;2023-12-04T12:06:01;100164.81;;;0.45;77.38
13705;BME280;6924;52.122;9.952;2023-12-04T12:08:29;100155.44;;;0.51;75.68
13705;BME280;6924;52.122;9.952;2023-12-04T12:10:56;100158.50;;;0.54;73.61
13705;BME280;6924;52.122;9.952;2023-12-04T12:13:23;100146.94;;;0.63;76.50
13705;BME280;6924;52.122;9.952;2023-12-04T12:15:51;100144.16;;;0.63;77.33
13705;BME280;6924;52.122;9.952;2023-12-04T12:18:18;100152.13;;;0.54;77.84
13705;BME280;6924;52.122;9.952;2023-12-04T12:20:44;100138.78;;;0.56;75.70
13705;BME280;6924;52.122;9.952;2023-12-04T12:23:13;100145.25;;;0.61;75.90
13705;BME280;6924;52.122;9.952;2023-12-04T12:25:41;100129.06;;;0.58;75.92
13705;BME280;6924;52.122;9.952;2023-12-04T12:28:07;100130.44;;;0.56;75.67
13705;BME280;6924;52.122;9.952;2023-12-04T12:30:34;100120.72;;;0.58;76.48
13705;BME280;6924;52.122;9.952;2023-12-04T12:33:00;100120.13;;;0.56;76.01
13705;BME280;6924;52.122;9.952;2023-12-04T12:35:27;100113.53;;;0.40;75.80
13705;BME280;6924;52.122;9.952;2023-12-04T12:37:55;100116.13;;;0.25;77.04
13705;BME280;6924;52.122;9.952;2023-12-04T12:40:21;100113.59;;;0.24;75.25
13705;BME280;6924;52.122;9.952;2023-12-04T12:42:49;100117.97;;;0.19;77.67
13705;BME280;6924;52.122;9.952;2023-12-04T12:45:17;100115.88;;;0.27;76.65
13705;BME280;6924;52.122;9.952;2023-12-04T12:47:43;100115.97;;;0.15;77.42
13705;BME280;6924;52.122;9.952;2023-12-04T12:50:10;100098.97;;;0.11;76.63
13705;BME280;6924;52.122;9.952;2023-12-04T12:52:38;100100.13;;;0.15;77.17
13705;BME280;6924;52.122;9.952;2023-12-04T12:55:05;100096.72;;;0.30;75.96
13705;BME280;6924;52.122;9.952;2023-12-04T12:57:32;100093.34;;;0.28;75.37
13705;BME280;6924;52.122;9.952;2023-12-04T13:00:00;100089.28;;;0.14;77.51